createdAt,value
2022-09-29T00:02:14.952Z,99.90
2022-09-29T00:04:42.439Z,99.90
2022-09-29T00:11:30.127Z,99.90
2022-09-29T00:14:19.740Z,99.90
2022-09-29T00:17:23.931Z,99.90
2022-09-29T00:20:36.700Z,99.90
2022-09-29T00:23:10.085Z,99.90
2022-09-29T00:26:07.751Z,99.90
2022-09-29T00:29:07.452Z,99.90
2022-09-29T00:31:34.852Z,99.90
2022-09-29T00:34:02.484Z,99.90
2022-09-29T00:36:30.311Z,99.90
2022-09-29T00:39:17.776Z,99.90
2022-09-29T00:41:45.184Z,99.90
2022-09-29T00:44:17.597Z,99.90
2022-09-29T00:46:53.730Z,99.90
2022-09-29T00:49:48.459Z,99.90
2022-09-29T00:52:30.079Z,99.90
2022-09-29T00:55:20.670Z,99.90
2022-09-29T00:58:10.563Z,99.90
2022-09-29T01:00:40.177Z,99.90
2022-09-29T01:03:50.326Z,99.90
2022-09-29T01:09:37.646Z,99.90
2022-09-29T01:12:25.025Z,99.90
2022-09-29T01:15:18.471Z,99.90
2022-09-29T01:17:49.689Z,99.90
2022-09-29T01:20:23.401Z,99.90
2022-09-29T01:23:37.415Z,99.90
2022-09-29T01:26:43.733Z,99.90
2022-09-29T01:29:46.588Z,99.90
2022-09-29T01:32:39.890Z,99.90
2022-09-29T01:35:28.650Z,99.90
2022-09-29T01:38:17.685Z,99.90
2022-09-29T01:41:29.908Z,99.90
2022-09-29T01:44:17.517Z,99.90
2022-09-29T01:48:09.997Z,99.90
2022-09-29T01:51:17.329Z,99.90
2022-09-29T01:54:02.090Z,99.90
2022-09-29T02:00:19.312Z,99.90
2022-09-29T02:03:21.540Z,99.90
2022-09-29T02:06:01.249Z,99.90
2022-09-29T02:09:09.693Z,99.90
2022-09-29T02:12:05.174Z,99.90
2022-09-29T02:15:17.793Z,99.90
2022-09-29T02:20:54.746Z,99.90
2022-09-29T02:23:26.105Z,99.90
2022-09-29T02:26:15.415Z,99.90
2022-09-29T02:28:59.056Z,99.90
2022-09-29T02:34:51.116Z,99.90
2022-09-29T02:37:55.828Z,99.90
2022-09-29T02:40:45.992Z,99.90
2022-09-29T02:43:47.642Z,99.90
2022-09-29T02:46:43.060Z,99.90
2022-09-29T02:49:16.131Z,99.90
2022-09-29T02:52:18.188Z,99.90
2022-09-29T02:55:33.707Z,99.90
2022-09-29T02:58:43.033Z,99.90
2022-09-29T03:01:18.293Z,99.90
2022-09-29T03:03:50.831Z,99.90
2022-09-29T03:09:25.845Z,99.90
2022-09-29T03:11:55.916Z,99.90
2022-09-29T03:17:24.332Z,99.90
2022-09-29T03:20:11.776Z,99.90
2022-09-29T03:22:57.405Z,99.90
2022-09-29T03:26:23.827Z,99.90
2022-09-29T03:35:17.877Z,99.90
2022-09-29T03:40:29.899Z,99.90
2022-09-29T03:42:57.181Z,99.90
2022-09-29T03:45:27.274Z,99.90
2022-09-29T03:47:54.654Z,99.90
2022-09-29T03:50:32.784Z,99.90
2022-09-29T03:53:20.299Z,99.90
2022-09-29T03:56:08.529Z,99.90
2022-09-29T03:58:36.016Z,99.90
2022-09-29T04:01:07.000Z,99.90
2022-09-29T04:03:35.141Z,99.90
2022-09-29T04:06:04.288Z,99.90
2022-09-29T04:08:33.417Z,99.90
2022-09-29T04:14:15.334Z,99.90
2022-09-29T04:17:48.630Z,99.90
2022-09-29T04:20:24.378Z,99.90
2022-09-29T04:22:57.383Z,99.90
2022-09-29T04:25:28.317Z,99.90
2022-09-29T04:27:55.911Z,99.90
2022-09-29T04:35:48.935Z,99.90
2022-09-29T04:41:54.098Z,99.90
2022-09-29T04:48:42.312Z,99.90
2022-09-29T04:53:54.337Z,99.90
2022-09-29T04:56:21.669Z,99.90
2022-09-29T04:58:48.998Z,99.90
2022-09-29T05:01:27.293Z,99.90
2022-09-29T05:04:14.665Z,99.90
2022-09-29T05:13:02.363Z,99.90
2022-09-29T05:16:10.566Z,99.90
2022-09-29T05:18:43.069Z,99.90
2022-09-29T05:21:26.979Z,99.90
2022-09-29T05:24:02.836Z,99.90
2022-09-29T05:26:32.816Z,99.90
2022-09-29T05:29:07.330Z,99.90
2022-09-29T05:31:37.843Z,99.90
2022-09-29T05:34:06.206Z,99.90
2022-09-29T05:36:33.620Z,99.90
2022-09-29T05:39:01.070Z,99.90
2022-09-29T05:41:50.874Z,99.90
2022-09-29T05:44:18.171Z,99.90
2022-09-29T05:46:57.558Z,99.90
2022-09-29T05:49:24.846Z,99.90
2022-09-29T05:52:00.394Z,99.90
2022-09-29T05:54:30.644Z,99.90
2022-09-29T05:56:58.145Z,99.90
2022-09-29T05:59:29.782Z,99.90
2022-09-29T06:02:37.311Z,99.90
2022-09-29T06:05:05.051Z,99.90
2022-09-29T06:07:35.202Z,99.90
2022-09-29T06:10:02.647Z,99.90
2022-09-29T06:12:41.902Z,99.90
2022-09-29T06:15:13.443Z,99.90
2022-09-29T06:20:27.418Z,99.90
2022-09-29T06:22:55.466Z,99.90
2022-09-29T06:25:31.517Z,99.90
2022-09-29T06:27:58.885Z,99.90
2022-09-29T06:30:26.205Z,99.90
2022-09-29T06:33:13.598Z,99.90
2022-09-29T06:36:06.027Z,99.90
2022-09-29T06:38:34.222Z,99.90
2022-09-29T06:41:07.556Z,99.90
2022-09-29T06:44:16.127Z,99.90
2022-09-29T06:47:33.971Z,99.90
2022-09-29T06:50:07.310Z,99.90
2022-09-29T06:53:03.089Z,99.90
2022-09-29T06:58:47.180Z,99.90
2022-09-29T07:04:31.184Z,99.90
2022-09-29T07:07:02.211Z,99.90
2022-09-29T07:09:29.702Z,99.90
2022-09-29T07:11:57.250Z,99.90
2022-09-29T07:14:28.564Z,99.90
2022-09-29T07:20:11.999Z,99.90
2022-09-29T07:22:48.849Z,99.90
2022-09-29T07:25:51.680Z,99.90
2022-09-29T07:28:20.502Z,99.90
2022-09-29T07:31:12.071Z,99.90
2022-09-29T07:33:44.588Z,99.90
2022-09-29T07:36:28.854Z,99.90
2022-09-29T07:38:56.522Z,99.90
2022-09-29T07:41:25.038Z,99.90
2022-09-29T07:43:53.503Z,99.90
2022-09-29T07:46:21.017Z,99.90
2022-09-29T07:48:48.417Z,99.90
2022-09-29T07:51:20.202Z,99.90
2022-09-29T07:53:48.269Z,99.90
2022-09-29T07:56:21.663Z,99.90
2022-09-29T07:58:50.711Z,99.90
2022-09-29T08:01:27.316Z,99.90
2022-09-29T08:03:55.953Z,99.90
2022-09-29T08:06:25.595Z,99.90
2022-09-29T08:09:04.680Z,99.90
2022-09-29T08:11:34.423Z,99.90
2022-09-29T08:14:02.364Z,99.90
2022-09-29T08:19:16.244Z,99.90
2022-09-29T08:21:43.686Z,99.90
2022-09-29T08:24:14.282Z,99.90
2022-09-29T08:26:47.662Z,99.90
2022-09-29T08:29:17.949Z,99.90
2022-09-29T08:32:11.068Z,99.90
2022-09-29T08:34:39.172Z,99.90
2022-09-29T08:37:06.428Z,99.90
2022-09-29T08:39:41.330Z,99.90
2022-09-29T08:42:49.084Z,99.90
2022-09-29T08:45:42.306Z,99.90
2022-09-29T08:48:31.688Z,99.90
2022-09-29T08:51:03.707Z,99.90
2022-09-29T08:54:02.303Z,99.90
2022-09-29T08:56:35.365Z,99.90
2022-09-29T08:59:19.751Z,99.90
2022-09-29T09:02:29.532Z,99.90
2022-09-29T09:05:15.930Z,99.90
2022-09-29T09:08:10.918Z,99.90
2022-09-29T09:10:48.983Z,99.90
2022-09-29T09:13:45.413Z,99.90
2022-09-29T09:16:40.476Z,99.90
2022-09-29T09:22:45.397Z,99.90
2022-09-29T09:25:41.590Z,99.90
2022-09-29T09:28:37.916Z,99.90
2022-09-29T09:31:13.462Z,99.90
2022-09-29T09:34:06.796Z,99.90
2022-09-29T09:37:05.616Z,99.90
2022-09-29T09:40:38.785Z,99.90
2022-09-29T09:44:07.909Z,99.90
2022-09-29T09:47:33.274Z,99.90
2022-09-29T09:50:17.366Z,99.90
2022-09-29T09:53:44.050Z,99.90
2022-09-29T10:00:23.689Z,99.90
2022-09-29T10:03:17.524Z,99.90
2022-09-29T10:13:00.406Z,99.90
2022-09-29T10:15:50.541Z,99.90
2022-09-29T10:48:52.790Z,99.90
2022-09-29T10:55:30.293Z,99.90
2022-09-29T11:01:20.381Z,99.90
2022-09-29T11:04:24.059Z,99.90
2022-09-29T11:07:14.558Z,91.50
2022-09-29T11:10:40.724Z,79.80
2022-09-29T11:14:10.700Z,71.90
2022-09-29T11:16:52.543Z,64.10
2022-09-29T11:19:29.895Z,59.80
2022-09-29T11:22:36.794Z,57.90
2022-09-29T11:25:16.064Z,55.40
2022-09-29T11:28:01.395Z,53.30
2022-09-29T11:30:56.365Z,51.70
2022-09-29T11:33:49.189Z,49.80
2022-09-29T11:37:05.370Z,49.70
2022-09-29T11:39:51.449Z,50.10
2022-09-29T11:42:45.023Z,49.20
2022-09-29T11:45:20.805Z,47.70
2022-09-29T11:48:07.263Z,46.40
2022-09-29T11:51:07.776Z,46.90
2022-09-29T11:54:18.079Z,47.20
2022-09-29T11:57:08.566Z,46.70
2022-09-29T11:59:54.776Z,47.50
2022-09-29T12:02:59.953Z,49.60
2022-09-29T12:06:17.581Z,52.90
2022-09-29T12:08:54.103Z,57.30
2022-09-29T12:12:18.977Z,62.50
2022-09-29T12:14:53.777Z,66.30
2022-09-29T12:17:28.114Z,68.50
2022-09-29T12:20:22.527Z,72.70
2022-09-29T12:22:52.548Z,75.60
2022-09-29T12:25:25.055Z,78.20
2022-09-29T12:28:00.472Z,82.30
2022-09-29T12:30:31.663Z,85.30
2022-09-29T12:33:08.431Z,88.00
2022-09-29T12:36:27.973Z,90.10
2022-09-29T12:39:10.121Z,90.20
2022-09-29T12:41:44.968Z,90.90
2022-09-29T12:44:25.450Z,90.80
2022-09-29T12:47:20.189Z,91.60
2022-09-29T12:50:10.664Z,90.80
2022-09-29T12:53:07.005Z,91.60
2022-09-29T12:55:55.522Z,91.70
2022-09-29T12:58:28.852Z,92.00
2022-09-29T13:01:27.120Z,92.70
2022-09-29T13:04:26.824Z,92.80
2022-09-29T13:07:11.355Z,93.00
2022-09-29T13:10:03.417Z,93.30
2022-09-29T13:12:52.908Z,94.00
2022-09-29T13:15:49.802Z,94.30
2022-09-29T13:18:21.391Z,95.10
2022-09-29T13:21:07.804Z,95.50
2022-09-29T13:23:54.132Z,96.00
2022-09-29T13:26:39.257Z,96.50
2022-09-29T13:29:23.846Z,96.90
2022-09-29T13:32:02.108Z,97.00
2022-09-29T13:34:33.346Z,97.30
2022-09-29T13:37:20.151Z,97.10
2022-09-29T13:39:56.823Z,97.30
2022-09-29T13:42:45.971Z,97.80
2022-09-29T13:45:31.621Z,97.80
2022-09-29T13:48:04.140Z,98.40
2022-09-29T13:50:44.145Z,98.70
2022-09-29T13:53:31.308Z,98.90
2022-09-29T13:56:05.238Z,99.30
2022-09-29T13:59:31.746Z,99.90
2022-09-29T14:02:57.205Z,99.90
2022-09-29T14:05:24.751Z,99.90
2022-09-29T14:07:56.061Z,99.90
2022-09-29T14:10:36.000Z,99.90
2022-09-29T14:13:03.592Z,99.90
2022-09-29T14:16:07.008Z,99.90
2022-09-29T14:18:52.395Z,99.90
2022-09-29T14:22:05.694Z,99.90
2022-09-29T14:24:47.976Z,99.90
2022-09-29T14:27:33.770Z,99.90
2022-09-29T14:30:11.788Z,99.90
2022-09-29T14:32:52.172Z,99.90
2022-09-29T14:35:33.133Z,99.90
2022-09-29T14:38:06.504Z,99.90
2022-09-29T14:40:34.395Z,99.90
2022-09-29T14:43:52.696Z,99.90
2022-09-29T14:46:50.825Z,99.90
2022-09-29T14:49:56.049Z,99.90
2022-09-29T14:52:32.752Z,99.90
2022-09-29T14:55:20.264Z,99.90
2022-09-29T14:58:07.159Z,99.90
2022-09-29T15:01:10.932Z,99.90
2022-09-29T15:04:30.532Z,99.90
2022-09-29T15:07:13.157Z,99.90
2022-09-29T15:09:49.157Z,99.90
2022-09-29T15:12:37.102Z,99.90
2022-09-29T15:15:04.917Z,99.90
2022-09-29T15:18:24.774Z,99.90
2022-09-29T15:20:52.679Z,99.90
2022-09-29T15:23:29.120Z,99.90
2022-09-29T15:26:01.020Z,99.90
2022-09-29T15:28:32.364Z,99.90
2022-09-29T15:31:05.378Z,99.90
2022-09-29T15:33:38.726Z,99.90
2022-09-29T15:36:13.105Z,99.90
2022-09-29T15:38:40.547Z,99.90
2022-09-29T15:41:11.190Z,99.90
2022-09-29T15:43:56.864Z,99.90
2022-09-29T15:47:27.253Z,99.90
2022-09-29T15:49:56.751Z,99.90
2022-09-29T15:53:25.234Z,99.90
2022-09-29T15:56:11.302Z,99.90
2022-09-29T15:58:48.764Z,99.90
2022-09-29T16:01:39.524Z,99.90
2022-09-29T16:04:10.371Z,99.90
2022-09-29T16:06:57.848Z,99.90
2022-09-29T16:09:26.641Z,99.90
2022-09-29T16:12:03.752Z,99.90
2022-09-29T16:14:34.381Z,99.90
2022-09-29T16:17:03.762Z,99.90
2022-09-29T16:19:38.673Z,99.90
2022-09-29T16:22:07.611Z,99.90
2022-09-29T16:24:56.579Z,99.90
2022-09-29T16:27:57.987Z,99.90
2022-09-29T16:30:32.781Z,99.90
2022-09-29T16:33:12.522Z,99.90
2022-09-29T16:35:48.942Z,99.90
2022-09-29T16:38:34.819Z,99.90
2022-09-29T16:41:12.513Z,99.90
2022-09-29T16:44:22.778Z,99.90
2022-09-29T16:46:59.585Z,99.90
2022-09-29T16:49:35.316Z,99.90
2022-09-29T16:52:26.948Z,99.90
2022-09-29T16:55:30.721Z,99.90
2022-09-29T16:58:15.559Z,99.90
2022-09-29T17:00:43.180Z,99.90
2022-09-29T17:03:12.471Z,99.90
2022-09-29T17:05:48.345Z,99.90
2022-09-29T17:33:36.112Z,99.90
2022-09-29T17:36:24.145Z,99.90
2022-09-29T17:43:09.979Z,99.90
2022-09-29T17:47:05.413Z,99.90
2022-09-29T17:49:51.250Z,99.90
2022-09-29T17:52:22.202Z,99.90
2022-09-29T17:54:51.114Z,99.90
2022-09-29T17:57:28.024Z,99.90
2022-09-29T17:59:57.946Z,99.90
2022-09-29T18:02:25.689Z,99.90
2022-09-29T18:05:13.544Z,99.90
2022-09-29T18:07:41.938Z,99.90
2022-09-29T18:10:37.697Z,99.90
2022-09-29T18:13:05.372Z,99.90
2022-09-29T18:15:33.371Z,99.90
2022-09-29T18:18:05.393Z,99.90
2022-09-29T18:20:36.290Z,99.90
2022-09-29T18:23:03.854Z,99.90
2022-09-29T18:25:35.351Z,99.90
2022-09-29T18:28:03.706Z,99.90
2022-09-29T18:30:44.835Z,99.90
2022-09-29T18:33:15.158Z,99.90
2022-09-29T18:35:47.400Z,99.90
2022-09-29T18:38:17.680Z,99.90
2022-09-29T18:40:55.622Z,99.90
2022-09-29T18:43:27.434Z,99.90
2022-09-29T18:45:56.054Z,99.90
2022-09-29T18:48:23.836Z,99.90
2022-09-29T18:51:01.641Z,99.90
2022-09-29T18:53:33.901Z,99.90
2022-09-29T18:56:05.158Z,99.90
2022-09-29T18:58:33.538Z,99.90
2022-09-29T19:01:56.744Z,99.90
2022-09-29T19:04:44.504Z,99.90
2022-09-29T19:08:04.121Z,99.90
2022-09-29T19:10:54.190Z,99.90
2022-09-29T19:13:22.397Z,99.90
2022-09-29T19:16:07.239Z,99.90
2022-09-29T19:18:42.115Z,99.90
2022-09-29T19:21:20.549Z,99.90
2022-09-29T19:23:52.353Z,99.90
2022-09-29T19:26:54.468Z,99.90
2022-09-29T19:29:23.011Z,99.90
2022-09-29T19:31:54.194Z,99.90
2022-09-29T19:34:23.452Z,99.90
2022-09-29T19:36:51.375Z,99.90
2022-09-29T19:42:09.365Z,99.90
2022-09-29T19:44:40.453Z,99.90
2022-09-29T19:47:11.670Z,99.90
2022-09-29T19:49:43.551Z,99.90
2022-09-29T19:54:54.212Z,99.90
2022-09-29T19:57:30.072Z,99.90
2022-09-29T20:00:06.119Z,99.90
2022-09-29T20:02:49.154Z,99.90
2022-09-29T20:05:17.687Z,99.90
2022-09-29T20:07:45.310Z,99.90
2022-09-29T20:10:16.938Z,99.90
2022-09-29T20:12:50.332Z,99.90
2022-09-29T20:15:18.394Z,99.90
2022-09-29T20:17:47.192Z,99.90
2022-09-29T20:20:20.501Z,99.90
2022-09-29T20:23:02.829Z,99.90
2022-09-29T20:25:46.750Z,99.90
2022-09-29T20:28:17.585Z,99.90
2022-09-29T20:30:46.330Z,99.90
2022-09-29T20:33:20.912Z,99.90
2022-09-29T20:35:51.087Z,99.90
2022-09-29T20:38:26.820Z,99.90
2022-09-29T20:44:36.623Z,99.90
2022-09-29T20:47:32.221Z,99.90
2022-09-29T20:50:00.973Z,99.90
2022-09-29T20:52:38.175Z,99.90
2022-09-29T20:55:06.698Z,99.90
2022-09-29T20:57:36.127Z,99.90
2022-09-29T21:00:04.451Z,99.90
2022-09-29T21:02:32.126Z,99.90
2022-09-29T21:04:59.692Z,99.90
2022-09-29T21:07:36.384Z,99.90
2022-09-29T21:10:05.587Z,99.90
2022-09-29T21:12:35.475Z,99.90
2022-09-29T21:15:03.626Z,99.90
2022-09-29T21:17:31.435Z,99.90
2022-09-29T21:19:58.886Z,99.90
2022-09-29T21:22:27.909Z,99.90
2022-09-29T21:25:00.848Z,99.90
2022-09-29T21:27:30.060Z,99.90
2022-09-29T21:30:00.046Z,99.90
2022-09-29T21:32:29.062Z,99.90
2022-09-29T21:34:58.993Z,99.90
2022-09-29T21:37:27.164Z,99.90
2022-09-29T21:39:55.064Z,99.90
2022-09-29T21:42:22.856Z,99.90
2022-09-29T21:44:52.816Z,99.90
2022-09-29T21:47:45.839Z,99.90
2022-09-29T21:50:13.848Z,99.90
2022-09-29T21:52:42.581Z,99.90
2022-09-29T21:55:13.229Z,99.90
2022-09-29T21:57:49.474Z,99.90
2022-09-29T22:00:17.695Z,99.90
2022-09-29T22:02:45.504Z,99.90
2022-09-29T22:05:20.283Z,99.90
2022-09-29T22:07:48.869Z,99.90
2022-09-29T22:10:16.636Z,99.90
2022-09-29T22:12:44.099Z,99.90
2022-09-29T22:15:11.689Z,99.90
2022-09-29T22:17:39.155Z,99.90
2022-09-29T22:20:06.973Z,99.90
2022-09-29T22:22:34.502Z,99.90
2022-09-29T22:25:04.214Z,99.90
2022-09-29T22:27:33.254Z,99.90
2022-09-29T22:30:00.902Z,99.90
2022-09-29T22:32:29.617Z,99.90
2022-09-29T22:34:57.176Z,99.90
2022-09-29T22:37:30.934Z,99.90
2022-09-29T22:40:03.817Z,99.90
2022-09-29T22:42:32.189Z,99.90
2022-09-29T22:44:59.723Z,99.90
2022-09-29T22:47:27.223Z,99.90
2022-09-29T22:49:56.784Z,99.90
2022-09-29T22:52:24.255Z,99.90
2022-09-29T22:54:51.826Z,99.90
2022-09-29T22:57:19.286Z,99.90
2022-09-29T22:59:46.848Z,99.90
2022-09-29T23:02:14.489Z,99.90
2022-09-29T23:04:50.303Z,99.90
2022-09-29T23:07:20.141Z,99.90
2022-09-29T23:09:50.334Z,99.90
2022-09-29T23:12:18.532Z,99.90
2022-09-29T23:14:46.003Z,99.90
2022-09-29T23:17:34.878Z,99.90
2022-09-29T23:20:04.699Z,99.90
2022-09-29T23:22:37.147Z,99.90
2022-09-29T23:25:07.054Z,99.90
2022-09-29T23:27:48.162Z,99.90
2022-09-29T23:30:35.861Z,99.90
2022-09-29T23:33:06.455Z,99.90
2022-09-29T23:35:54.011Z,99.90
2022-09-29T23:38:39.893Z,99.90
2022-09-29T23:41:10.856Z,99.90
2022-09-29T23:46:35.158Z,99.90
2022-09-29T23:52:28.669Z,99.90
2022-09-29T23:55:05.851Z,99.90
2022-09-29T23:57:54.921Z,99.90
